Weather observations for the past three days for
Fort Morgan Municipal Airport
Imperial (Metric)
Date Time (mdt) Wind (mph) Vis. (mi.) Weather Sky Cond. Temperature (ºF) Relative Humidity Wind Chill (°F) Heat Index (°F) Pressure Precipitation (in)
Air Dwpt 6 hour altimeter (in) sea level (mb) 1 hr 3 hr 6 hr
Max. Min.
09 17:55 NE 17 10.00 Fair CLR 71.6 37.4 29% 29.91 0.0
09 17:35 NE 17 10.00 Fair CLR 71.6 37.4 29% 29.9 0.0
09 17:15 NE 15 G 25 10.00 Fair CLR 73.4 39.2 29% 29.91 0.0
09 16:55 NE 22 10.00 A Few Clouds and Breezy FEW110 71.6 39.2 31% 29.91 0.0
09 16:35 NE 21 G 29 10.00 Partly Cloudy and Breezy SCT110 71.6 39.2 31% 29.9 0.0
09 16:15 NE 14 G 23 10.00 A Few Clouds FEW120 75.2 32 21% 76 29.9 0.0
09 15:55 Vrbl 7 G 23 10.00 Partly Cloudy FEW100 SCT120 77 33.8 21% 77 29.9 0.0
09 15:35 N 16 10.00 A Few Clouds FEW100 75.2 33.8 22% 76 29.9 0.0
09 15:15 NW 10 10.00 Partly Cloudy SCT100 SCT120 77 33.8 21% 77 29.91 0.0
09 14:55 N 14 G 23 10.00 Partly Cloudy FEW095 SCT110 77 35.6 22% 77 29.91 0.0
09 14:35 NW 14 G 23 10.00 Mostly Cloudy BKN090 BKN110 73.4 35.6 25% 29.92 0.0
09 14:15 N 9 10.00 Mostly Cloudy BKN100 75.2 37.4 25% 77 29.92 0.0
09 13:55 N 8 G 20 10.00 Mostly Cloudy BKN090 BKN120 75.2 37.4 25% 77 29.92 0.0
09 13:35 N 6 G 18 10.00 A Few Clouds FEW085 FEW110 73.4 37.4 27% 29.92 0.0
09 13:15 NE 8 G 18 10.00 Mostly Cloudy BKN085 BKN120 75.2 37.4 25% 77 29.92 0.0
09 12:55 NE 13 10.00 Mostly Cloudy SCT085 BKN110 71.6 37.4 29% 29.93 0.0
09 12:35 N 10 G 20 10.00 A Few Clouds FEW110 73.4 37.4 27% 29.93 0.0
09 12:15 NE 9 G 23 10.00 Fair CLR 73.4 37.4 27% 29.93 0.0
09 11:55 N 16 10.00 Fair CLR 71.6 37.4 29% 29.93 0.0
09 11:35 N 16 10.00 Fair CLR 71.6 39.2 31% 29.93 0.0
09 11:15 N 13 G 20 10.00 Fair CLR 71.6 39.2 31% 29.93 0.0
09 10:55 N 15 10.00 Fair CLR 69.8 39.2 33% 29.93 0.0
09 10:35 N 16 G 25 10.00 Fair CLR 69.8 39.2 33% 29.93 0.0
09 10:15 NW 21 G 26 10.00 Fair and Breezy CLR 68 39.2 35% 29.92 0.0
09 09:55 N 22 G 29 10.00 Fair and Breezy CLR 68 41 38% 29.92 0.0
09 09:35 N 23 G 29 10.00 Fair and Breezy CLR 64.4 41 43% 29.92 0.0
09 09:15 N 16 G 23 10.00 Fair CLR 62.6 42.8 49% 29.92 0.0
09 08:55 N 12 G 24 10.00 Fair CLR 60.8 42.8 52% 29.92 0.0
09 08:35 NW 15 10.00 Fair CLR 59 42.8 55% 29.9 0.0
09 08:15 W 8 10.00 Fair CLR 53.6 46.4 77% 29.9 0.0
09 07:55 W 9 10.00 Fair CLR 51.8 46.4 82% 29.9 0.0
09 07:35 W 8 G 14 10.00 Fair CLR 48.2 44.6 87% 45 29.9 0.0
09 07:15 W 10 10.00 Fair CLR 48.2 44.6 87% 44 29.89 0.0
09 06:55 W 13 10.00 Fair CLR 48.2 44.6 87% 43 29.87 0.0
09 06:35 W 10 10.00 Fair CLR 46.4 42.8 87% 42 29.87 0.0
09 06:15 W 9 10.00 Fair CLR 44.6 42.8 93% 40 29.86 0.0
09 05:55 W 9 10.00 Fair CLR 44.6 42.8 93% 40 29.86 0.0
09 05:35 W 7 10.00 Fair CLR 46.4 41 82% 43 29.85 0.0
09 05:15 SW 6 10.00 Fair CLR 48.2 39.2 71% 46 29.86 0.0
09 04:55 SW 6 10.00 Fair CLR 50 39.2 67% 48 29.85 0.0
09 04:35 S 5 10.00 A Few Clouds FEW120 48.2 39.2 71% 47 29.85 0.0
09 04:15 S 7 10.00 Mostly Cloudy BKN120 50 39.2 67% 48 29.85 0.0
09 03:55 S 9 10.00 Overcast OVC120 50 39.2 67% 47 29.86 0.0
09 03:35 S 8 10.00 Mostly Cloudy BKN120 50 41 71% 47 29.87 0.0
09 03:15 S 6 10.00 Fair CLR 50 39.2 67% 48 29.87 0.0
09 02:55 Calm 10.00 Fair CLR 50 39.2 67% 29.87 0.0
09 02:35 S 6 10.00 Fair CLR 50 39.2 67% 48 29.88 0.0
09 01:55 S 3 10.00 A Few Clouds FEW110 48.2 39.2 71% 29.88 0.0
09 01:35 S 5 10.00 A Few Clouds FEW110 50 39.2 67% 49 29.89 0.0
09 01:15 S 7 10.00 A Few Clouds FEW120 50 39.2 67% 48 29.9 0.0
09 00:55 S 5 10.00 Mostly Cloudy FEW060 BKN120 53.6 37.4 54% 29.91 0.0
09 00:35 Calm 10.00 Mostly Cloudy BKN055 53.6 37.4 54% 29.91 0.0
09 00:15 SE 5 10.00 Overcast OVC055 53.6 37.4 54% 29.91 0.0
08 23:55 SE 5 10.00 Mostly Cloudy BKN060 BKN065 53.6 37.4 54% 29.91 0.0
08 23:35 S 5 10.00 A Few Clouds FEW065 53.6 39.2 58% 29.93 0.0
08 23:15 S 6 10.00 Fair CLR 55.4 37.4 51% 29.93 0.0
08 22:55 SE 6 10.00 Fair CLR 55.4 37.4 51% 29.93 0.0
08 22:35 Calm 10.00 A Few Clouds FEW120 55.4 37.4 51% 29.94 0.0
08 22:15 SE 8 10.00 A Few Clouds FEW120 57.2 37.4 48% 29.93 0.0
08 21:55 SE 3 10.00 Fair CLR 57.2 37.4 48% 29.94 0.0
08 21:35 SE 3 10.00 Fair CLR 59 37.4 45% 29.94 0.0
08 21:15 SE 8 10.00 Fair CLR 60.8 35.6 39% 29.94 0.0
08 20:55 SE 6 10.00 Fair CLR 60.8 35.6 39% 29.93 0.0
08 20:35 SE 6 10.00 Fair CLR 59 35.6 42% 29.93 0.0
08 20:15 E 8 10.00 Fair CLR 60.8 35.6 39% 29.92 0.0
08 19:55 E 7 10.00 Fair CLR 60.8 35.6 39% 29.92 0.0
08 19:35 Calm 10.00 A Few Clouds FEW110 64.4 33.8 32% 29.91 0.0
08 19:15 E 3 10.00 A Few Clouds FEW110 66.2 32 28% 29.91 0.0
08 18:35 N 6 10.00 Fair CLR 69.8 32 25% 29.91 0.0
08 18:15 E 5 G 13 10.00 Fair CLR 69.8 32 25% 29.91 0.0
08 17:55 Vrbl 7 10.00 A Few Clouds FEW095 68 33.8 28% 29.92 0.0
08 17:35 Vrbl 5 10.00 Partly Cloudy FEW090 SCT110 71.6 33.8 25% 29.92 0.0
08 17:15 N 9 10.00 Mostly Cloudy BKN090 BKN110 69.8 33.8 27% 29.92 0.0
08 16:55 N 9 10.00 Overcast OVC085 69.8 33.8 27% 29.92 0.0
08 16:15 Vrbl 5 G 15 10.00 Fair CLR 68 33.8 28% 29.92 0.0
08 15:55 Vrbl 6 G 17 10.00 Fair CLR 69.8 33.8 27% 29.93 0.0
08 15:35 NW 9 G 18 10.00 Fair CLR 69.8 35.6 29% 29.93 0.0
08 15:15 N 15 G 22 10.00 Fair CLR 69.8 35.6 29% 29.94 0.0
08 14:55 N 9 G 16 10.00 A Few Clouds FEW075 69.8 35.6 29% 29.95 0.0
08 14:35 N 10 G 17 10.00 Fair CLR 68 35.6 30% 29.95 0.0
08 14:15 Vrbl 5 G 22 10.00 A Few Clouds FEW070 69.8 37.4 31% 29.96 0.0
08 13:55 NW 10 G 20 10.00 Fair CLR 68 37.4 33% 29.97 0.0
08 13:35 Vrbl 5 G 14 10.00 Fair CLR 66.2 37.4 35% 29.97 0.0
08 13:15 NW 15 10.00 Fair CLR 66.2 37.4 35% 29.98 0.0
08 12:55 NW 16 10.00 A Few Clouds FEW060 66.2 39.2 37% 29.98 0.0
08 12:35 NW 10 G 23 10.00 A Few Clouds FEW055 66.2 39.2 37% 29.98 0.0
08 12:15 NW 15 10.00 Partly Cloudy SCT050 SCT065 64.4 39.2 40% 29.99 0.0
08 11:55 NW 9 10.00 Mostly Cloudy BKN050 BKN065 64.4 39.2 40% 30 0.0
08 11:35 NW 12 G 18 10.00 Mostly Cloudy FEW050 BKN060 66.2 41 40% 30.01 0.0
08 11:15 NW 10 G 23 10.00 Mostly Cloudy SCT050 BKN055 64.4 41 43% 30.01 0.0
08 10:55 N 9 10.00 Partly Cloudy SCT046 62.6 41 45% 30.01 0.0
08 10:35 NW 9 G 17 10.00 A Few Clouds FEW044 60.8 41 48% 30.01 0.0
08 10:15 NW 10 G 17 10.00 Fair CLR 60.8 42.8 52% 30.02 0.0
08 09:55 NW 13 G 18 10.00 Fair CLR 59 42.8 55% 30.01 0.0
08 09:35 N 13 10.00 Fair CLR 59 42.8 55% 30.01 0.0
08 09:15 N 14 G 22 10.00 Fair CLR 59 44.6 59% 30.01 0.0
08 08:55 NW 15 G 22 10.00 Fair CLR 57.2 44.6 63% 30.01 0.0
08 08:35 NW 15 10.00 Fair CLR 55.4 44.6 67% 30.01 0.0
08 08:15 NW 12 10.00 Fair CLR 53.6 48.2 82% 30.01 0.0
08 07:55 W 12 10.00 Fair CLR 51.8 48.2 88% 30.02 0.0
08 07:15 W 8 10.00 Partly Cloudy SCT120 48.2 48.2 100% 45 30 0.0
08 06:35 W 10 10.00 Mostly Cloudy SCT095 BKN110 48.2 48.2 100% 44 30 0.0
08 06:15 W 9 10.00 A Few Clouds FEW075 FEW110 46.4 46.4 100% 42 29.99 0.0
08 05:55 W 5 10.00 Mostly Cloudy BKN075 46.4 46.4 100% 45 29.98 0.0
08 05:35 W 5 10.00 Mostly Cloudy SCT070 BKN080 BKN120 46.4 46.4 100% 45 29.98 0.0
08 05:15 W 6 9.00 Light Rain FEW009 SCT034 OVC070 48.2 48.2 100% 46 29.97 0.0
08 04:55 W 5 3.00 Light Rain Fog/Mist FEW023 SCT033 BKN050 48.2 48.2 100% 47 29.97 0.0 0.03
08 04:35 NW 12 8.00 Light Rain FEW025 SCT034 BKN050 48.2 48.2 100% 44 29.98 0.0
08 04:15 W 10 G 17 5.00 Light Rain Fog/Mist FEW033 SCT038 BKN049 48.2 48.2 100% 44 29.98 0.0
08 03:55 W 13 9.00 Light Rain FEW028 SCT050 BKN060 48.2 46.4 94% 43 29.97 0.0
08 03:35 N 7 10.00 Overcast FEW037 BKN075 OVC085 48.2 46.4 94% 46 29.95 0.0
08 03:15 N 5 10.00 Overcast SCT055 BKN075 OVC110 48.2 46.4 94% 47 29.94 0.0
08 02:55 N 7 10.00 Light Rain FEW004 BKN055 OVC075 48.2 48.2 100% 46 29.94 0.0
08 02:35 N 13 10.00 Mostly Cloudy FEW036 SCT055 BKN065 48.2 46.4 94% 43 29.96 0.0
08 02:15 NW 15 10.00 Light Rain FEW028 BKN050 OVC075 50 46.4 88% 45 29.97 0.0
08 01:35 N 13 10.00 Light Rain FEW012 SCT037 OVC075 50 46.4 88% 46 29.97 0.0
08 01:15 N 9 10.00 Overcast FEW036 BKN070 OVC100 48.2 46.4 94% 45 29.97 0.0
08 00:55 N 15 10.00 Overcast FEW055 SCT075 OVC090 50 44.6 82% 45 29.97 0.0
08 00:35 NW 15 10.00 Mostly Cloudy SCT080 BKN090 51.8 46.4 82% 29.97 0.0
08 00:15 W 14 10.00 Mostly Cloudy FEW065 SCT080 BKN095 51.8 48.2 88% 29.97 0.0
07 23:55 W 7 G 14 10.00 Mostly Cloudy SCT065 BKN080 BKN110 51.8 46.4 82% 29.96 0.0
07 23:35 SW 7 G 16 10.00 Overcast SCT070 BKN080 OVC120 53.6 46.4 77% 29.95 0.0
07 23:15 SW 10 10.00 Overcast BKN070 BKN085 OVC110 51.8 48.2 88% 29.97 0.0
07 22:55 W 9 10.00 Mostly Cloudy FEW035 SCT055 BKN070 51.8 48.2 88% 29.97 0.0
07 22:35 W 9 10.00 Overcast SCT055 BKN080 OVC100 51.8 48.2 88% 29.97 0.0
07 22:15 SW 8 10.00 Mostly Cloudy BKN095 BKN120 51.8 48.2 88% 29.96 0.0
07 21:55 W 8 10.00 Overcast FEW035 SCT090 OVC110 51.8 48.2 88% 29.96 0.0
07 21:35 Vrbl 3 G 13 10.00 Light Rain FEW035 SCT055 BKN070 53.6 46.4 77% 29.95 0.0
07 20:55 NW 10 10.00 Mostly Cloudy BKN110 53.6 42.8 67% 29.94 0.0
07 20:35 N 10 10.00 A Few Clouds FEW100 51.8 42.8 72% 29.92 0.0
07 20:15 N 10 10.00 Partly Cloudy SCT100 55.4 42.8 63% 29.92 0.0
07 19:55 N 16 G 23 10.00 Mostly Cloudy FEW065 SCT090 BKN110 59 42.8 55% 29.9 0.0
07 19:35 N 21 10.00 Mostly Cloudy and Breezy FEW065 SCT075 BKN090 60.8 42.8 52% 29.91 0.0
07 19:15 N 12 G 17 10.00 Mostly Cloudy FEW065 FEW075 BKN090 62.6 39.2 42% 29.89 0.0
07 18:55 NW 15 G 24 10.00 Mostly Cloudy FEW060 SCT070 BKN090 62.6 37.4 39% 29.88 0.0
07 18:35 N 20 10.00 Partly Cloudy SCT095 SCT120 60.8 42.8 52% 29.89 0.0
07 18:15 N 15 G 22 10.00 Mostly Cloudy SCT095 BKN120 60.8 42.8 52% 29.88 0.0
07 17:55 N 26 G 48 10.00 Mostly Cloudy and Windy BKN095 64.4 39.2 40% 29.87 0.0
07 17:35 W 8 G 15 10.00 Partly Cloudy SCT100 SCT120 69.8 32 25% 29.86 0.0
07 17:15 SW 14 10.00 A Few Clouds FEW120 71.6 32 23% 29.85 0.0
07 16:55 W 9 G 16 10.00 A Few Clouds FEW110 71.6 32 23% 29.86 0.0
07 16:35 W 10 G 21 10.00 A Few Clouds FEW090 FEW110 71.6 32 23% 29.86 0.0
07 16:15 W 13 G 22 10.00 Partly Cloudy FEW090 SCT110 69.8 32 25% 29.87 0.0
07 15:55 W 17 G 24 10.00 Partly Cloudy SCT090 SCT110 71.6 32 23% 29.87 0.0
07 15:35 W 16 10.00 A Few Clouds FEW095 69.8 32 25% 29.89 0.0
07 15:15 W 22 G 28 10.00 A Few Clouds and Breezy FEW090 71.6 32 23% 29.89 0.0
07 14:55 W 13 10.00 Fair CLR 69.8 32 25% 29.9 0.0
07 14:35 W 14 G 20 10.00 Fair CLR 69.8 32 25% 29.91 0.0
07 14:15 SW 10 10.00 Fair CLR 68 32 26% 29.92 0.0
07 13:35 SW 13 10.00 A Few Clouds FEW090 68 32 26% 29.94 0.0
07 13:15 NW 9 G 16 10.00 Mostly Cloudy BKN090 64.4 35.6 34% 29.95 0.0
07 12:55 W 13 G 23 10.00 Mostly Cloudy BKN085 64.4 33.8 32% 29.96 0.0
07 12:35 W 13 10.00 Fair CLR 64.4 35.6 34% 29.96 0.0
07 12:15 N 15 G 22 10.00 Fair CLR 64.4 33.8 32% 29.95 0.0
07 11:55 NW 21 G 28 10.00 Fair and Breezy CLR 64.4 33.8 32% 29.98 0.0
07 11:15 W 17 G 23 10.00 A Few Clouds FEW100 62.6 35.6 37% 29.97 0.0
07 10:55 W 17 G 25 10.00 A Few Clouds FEW110 62.6 35.6 37% 29.97 0.0
07 10:35 W 18 10.00 A Few Clouds FEW110 57.2 37.4 48% 29.97 0.0
07 09:55 W 13 G 20 10.00 A Few Clouds FEW100 51.8 35.6 54% 29.98 0.0
07 09:35 W 15 10.00 Mostly Cloudy BKN110 50 35.6 58% 45 29.99 0.0
07 09:15 W 15 10.00 Partly Cloudy SCT110 50 35.6 58% 45 29.98 0.0
07 08:55 W 15 10.00 A Few Clouds FEW110 48.2 35.6 62% 43 29.99 0.0
07 08:35 W 16 10.00 Fair CLR 46.4 35.6 66% 40 29.98 0.0
07 08:15 W 18 10.00 Fair CLR 46.4 33.8 62% 40 29.98 0.0
07 07:55 W 18 10.00 Fair CLR 44.6 33.8 66% 37 29.98 0.0
07 07:35 W 13 10.00 Fair CLR 41 33.8 76% 34 29.98 0.0
07 07:15 W 14 10.00 Fair CLR 39.2 33.8 81% 32 29.98 0.0
07 06:55 W 10 G 16 10.00 Fair CLR 37.4 33.8 87% 31 29.97 0.0
07 06:35 W 12 10.00 Fair CLR 35.6 32 87% 28 29.97 0.0
07 06:15 W 12 10.00 Fair CLR 35.6 32 87% 28 29.96 0.0
07 05:55 W 14 G 21 10.00 Fair CLR 35.6 32 87% 27 29.96 0.0
07 05:35 W 10 10.00 Fair CLR 33.8 32 93% 26 29.96 0.0
07 04:55 W 8 9.00 Fair CLR 32 32 100% 25 29.96 0.0
07 04:35 W 8 10.00 Fair CLR 32 32 100% 25 29.97 0.0
07 04:15 W 10 10.00 Fair CLR 32 32 100% 24 29.97 0.0
07 03:55 W 10 10.00 Fair CLR 32 32 100% 24 29.98 0.0
07 03:35 W 7 10.00 Fair CLR 32 32 100% 26 29.98 0.0
07 03:15 W 8 10.00 Fair CLR 32 32 100% 25 29.98 0.0
07 02:55 W 8 10.00 Fair CLR 32 32 100% 25 29.99 0.0
07 02:35 SW 5 10.00 Fair CLR 32 32 100% 28 29.99 0.0
07 02:15 SW 7 10.00 Fair CLR 32 32 100% 26 30 0.0
07 01:55 SW 6 G 13 10.00 Fair CLR 32 32 100% 27 30.01 0.0
07 01:15 S 7 G 15 10.00 Fair CLR 32 32 100% 26 30.02 0.0
07 00:55 W 9 10.00 Fair CLR 32 32 100% 25 30.04 0.0
07 00:35 W 8 10.00 Fair CLR 33.8 32 93% 28 30.03 0.0
07 00:15 SW 12 10.00 Fair CLR 33.8 32 93% 26 30.03 0.0
06 23:55 SW 9 10.00 Fair CLR 33.8 32 93% 27 30.03 0.0
06 23:35 SW 7 10.00 Fair CLR 33.8 32 93% 28 30.03 0.0
06 23:15 SW 7 10.00 Fair CLR 33.8 32 93% 28 30.04 0.0
06 22:35 SW 8 10.00 Fair CLR 33.8 32 93% 28 30.06 0.0
06 22:15 SW 7 10.00 Fair CLR 35.6 32 87% 31 30.06 0.0
06 21:55 SW 9 10.00 Fair CLR 37.4 33.8 87% 31 30.06 0.0
06 21:35 SW 7 10.00 Fair CLR 35.6 33.8 93% 31 30.07 0.0
06 21:15 SW 9 10.00 Fair CLR 37.4 33.8 87% 31 30.07 0.0
06 20:55 SW 8 10.00 Fair CLR 37.4 32 81% 32 30.07 0.0
06 20:35 SW 10 10.00 Fair CLR 39.2 32 75% 33 30.07 0.0
06 19:55 SW 10 10.00 Fair CLR 42.8 32 66% 38 30.06 0.0
06 19:35 SW 10 10.00 Fair CLR 42.8 32 66% 38 30.06 0.0
06 19:15 SW 12 10.00 Fair CLR 44.6 30.2 57% 39 30.06 0.0
06 18:55 SW 10 G 16 10.00 Fair CLR 46.4 30.2 53% 42 30.06 0.0
06 18:35 SW 8 G 15 10.00 Fair CLR 46.4 28.4 50% 43 30.06 0.0
06 18:15 SW 10 10.00 Fair CLR 46.4 28.4 50% 42 30.06 0.0
Date Time (mdt) Wind (mph) Vis. (mi.) Weather Sky Cond. Air Dwpt Max. Min. Relative Humidity Wind Chill (°F) Heat Index (°F) altimeter (in) sea level (mb) 1 hr 3 hr 6 hr
6 hour
Temperature (ºF) Pressure Precipitation (in)